RJER(METAR)
06/24 16:00
RJER 240700Z 08009KT 9999 FEWXXX 19/13 Q1011 RMK A2987=
戻る
トップページへ戻る
IMOC Co,.Ltd.